Terminal Aerodrome Forecast
Issued by NWS

Home | Current Version | Previous Version | Text Only | Print | Product List | Glossary On
Versions: 1 2 3 4 5 6 7 8 9 10 11 12 13 14 15 16 17 18 19 20 21 22 23 24 25 26 27 28 29 30 31 32 33 34 35 36
000
FTUS43 KLOT 210500
TAFORD
TAF
KORD 210525Z 2106/2212 36008KT P6SM FEW025 OVC050
     FM210800 35008KT P6SM SCT025 OVC040
     FM211300 01012G17KT P6SM SCT015 BKN025
     FM211900 03012G18KT P6SM BKN035
     FM220100 04007KT P6SM FEW040=

USA.gov is the U.S. government's official web portal to all federal, state and local government web resources and services.